Main page
METAR-TAF:

METAR-TAF

Airports :

Brest Airport

Brest, Belarus

latitude: 52-06-30N, longitude: 023-53-48E, elevation: 143 m

Current weather observation

The report was made 10 hours and 40 minutes ago, at 13:30 UTC
Wind 6 kt from the Southeast
Temperature 0°C
Humidity 100%
Pressure 1031 hPa
Visibility: 0700 m
fog

METAR: UMBB 171330Z 14003MPS 0700 R29/0700 FG VV002 00/M00 Q1031 R29/390120 TEMPO 0400 FZFG VV003 RMK QBB060

Time: 03:10 (00:10 UTC)

Forecast

The report was made 10 hours and 10 minutes ago, at 14:00 UTC
Forecast valid from 17 at 15 UTC to 17 at 24 UTC
Wind 4 kt from variable directions
Visibility: 0500 m
at a height of 300 ft
freezing fog
Temporary
from 17 at 15 UTC to 17 at 18 UTC
Visibility: 1100 m
mist
Temporary
from 17 at 18 UTC to 17 at 24 UTC
Visibility: 2100 m
Broken clouds at a height of 500 ft
mist

TAF: UMBB 171400Z 1715/1724 VRB02MPS 0500 FZFG VV003 TEMPO 1715/1718 1100 BR TEMPO 1718/1724 2100 BR BKN005

Weather observations and forecasts of more than 4000 airports (METAR and TAF reports).

The available stations are represented by yellow and red dots on the map.

Hover mouse over dot to see the name of the station.

Then click to see weather observations and forecasts.

To change the map : click on the green buttons with a black cross to zoom in, on the green button with a dash to zoom out, or on the green arrows for adjacent maps.


METAR-TAF: